デリー の空港の天気 - METARとTAF

インディラ・ガンディー国際空港 ( VIDP / DEL ) - インド デリー
飛行場実況気象(Metar)
観測時間10/23 18:30 IST (10/23 13:00 UTC)
風向・風速東北東 2m/s
視程2500m
天気現象煙霧
なし
気温30℃
湿度29%
気圧1009hPa
METARVIDP 231300Z 06003KT 2500 HZ NSC 30/10 Q1009 NOSIG
過去の天気等 Google飛行場航空写真 Wunderground天気予報

過去48時間のMETAR

飛行場予報(TAF)
発表時間: 10/23 16:30 IST (10/23 11:00 UTC)
予報対象時間: 23日17時 IST ~ 24日23時 IST
風向・風速北 2m/s
視程3,500m
天気現象煙霧
少しの雲 雲底高度 1,220m
23日20時 IST ~ 23日22時 IST に徐々に
風向・風速北 2m/s
視程3,000m
天気現象煙霧
24日2時 IST ~ 24日4時 IST に徐々に
風向・風速静穏
24日7時 IST ~ 24日9時 IST に徐々に
視程2,000m
天気現象煙霧
TAF VIDP 231100Z 2312/2418 35004KT 3500 HZ FEW040
BECMG 2315/2317 01003KT 3000 HZ
BECMG 2321/2323 00000KT
BECMG 2402/2404 2000 HZ